sensor_id;sensor_type;location;lat;lon;timestamp;pressure;altitude;pressure_sealevel;temperature;humidity
17649;BME280;8943;51.110;-4.158;2023-04-28T00:15:29;100352.97;;;16.82;60.00
17649;BME280;8943;51.110;-4.158;2023-04-28T00:17:58;100348.94;;;16.86;59.74
17649;BME280;8943;51.110;-4.158;2023-04-28T00:20:32;100361.22;;;16.88;60.07
17649;BME280;8943;51.110;-4.158;2023-04-28T00:23:04;100352.97;;;16.82;59.75
17649;BME280;8943;51.110;-4.158;2023-04-28T00:37:29;100346.56;;;16.75;60.61
17649;BME280;8943;51.110;-4.158;2023-04-28T00:55:30;100360.59;;;16.68;60.44
17649;BME280;8943;51.110;-4.158;2023-04-28T01:08:37;100368.66;;;16.68;60.30
17649;BME280;8943;51.110;-4.158;2023-04-28T01:38:20;100391.59;;;16.46;60.72
17649;BME280;8943;51.110;-4.158;2023-04-28T01:42:01;100389.69;;;16.39;61.10
17649;BME280;8943;51.110;-4.158;2023-04-28T01:44:51;100402.28;;;16.38;61.36
17649;BME280;8943;51.110;-4.158;2023-04-28T01:53:28;100410.00;;;16.33;61.39
17649;BME280;8943;51.110;-4.158;2023-04-28T02:12:43;100413.16;;;16.29;61.62
17649;BME280;8943;51.110;-4.158;2023-04-28T02:15:14;100416.66;;;16.21;61.64
17649;BME280;8943;51.110;-4.158;2023-04-28T02:17:42;100426.84;;;16.17;61.53
17649;BME280;8943;51.110;-4.158;2023-04-28T02:20:14;100421.00;;;16.22;61.47
17649;BME280;8943;51.110;-4.158;2023-04-28T02:22:45;100426.31;;;16.14;61.59
17649;BME280;8943;51.110;-4.158;2023-04-28T02:25:15;100434.25;;;16.15;61.48
17649;BME280;8943;51.110;-4.158;2023-04-28T02:30:49;100439.22;;;16.10;61.72
17649;BME280;8943;51.110;-4.158;2023-04-28T02:33:26;100435.38;;;16.13;61.57
17649;BME280;8943;51.110;-4.158;2023-04-28T02:39:23;100449.97;;;16.10;61.53
17649;BME280;8943;51.110;-4.158;2023-04-28T02:41:54;100444.38;;;16.04;61.61
17649;BME280;8943;51.110;-4.158;2023-04-28T02:44:41;100454.44;;;16.02;61.52
17649;BME280;8943;51.110;-4.158;2023-04-28T02:47:15;100448.81;;;15.95;61.69
17649;BME280;8943;51.110;-4.158;2023-04-28T02:49:54;100455.91;;;15.96;61.55
17649;BME280;8943;51.110;-4.158;2023-04-28T03:52:16;100483.81;;;15.85;62.74
17649;BME280;8943;51.110;-4.158;2023-04-28T03:54:53;100499.19;;;15.93;62.53
17649;BME280;8943;51.110;-4.158;2023-04-28T04:15:31;100511.94;;;15.91;62.85
17649;BME280;8943;51.110;-4.158;2023-04-28T04:18:00;100507.25;;;15.93;62.67
17649;BME280;8943;51.110;-4.158;2023-04-28T04:20:31;100511.25;;;15.89;63.07
17649;BME280;8943;51.110;-4.158;2023-04-28T04:26:07;100526.06;;;15.93;62.69
17649;BME280;8943;51.110;-4.158;2023-04-28T04:37:14;100554.53;;;15.86;62.96
17649;BME280;8943;51.110;-4.158;2023-04-28T04:42:49;100554.53;;;15.86;62.46
17649;BME280;8943;51.110;-4.158;2023-04-28T04:45:19;100554.00;;;15.82;62.91
17649;BME280;8943;51.110;-4.158;2023-04-28T06:08:45;100674.59;;;16.13;62.37
17649;BME280;8943;51.110;-4.158;2023-04-28T07:14:29;100758.81;;;16.41;61.54
17649;BME280;8943;51.110;-4.158;2023-04-28T07:16:58;100771.25;;;16.42;61.40
17649;BME280;8943;51.110;-4.158;2023-04-28T07:19:26;100765.03;;;16.41;61.19
17649;BME280;8943;51.110;-4.158;2023-04-28T07:21:55;100765.75;;;16.34;61.37
17649;BME280;8943;51.110;-4.158;2023-04-28T07:24:34;100779.91;;;16.36;61.26
17649;BME280;8943;51.110;-4.158;2023-04-28T07:27:04;100773.69;;;16.35;61.47
17649;BME280;8943;51.110;-4.158;2023-04-28T07:29:36;100773.38;;;16.38;61.41
17649;BME280;8943;51.110;-4.158;2023-04-28T07:32:06;100790.91;;;16.42;61.24
17649;BME280;8943;51.110;-4.158;2023-04-28T07:34:37;100788.66;;;16.38;60.97
17649;BME280;8943;51.110;-4.158;2023-04-28T07:37:08;100797.44;;;16.40;61.15
17649;BME280;8943;51.110;-4.158;2023-04-28T07:39:37;100790.81;;;16.34;61.26
17649;BME280;8943;51.110;-4.158;2023-04-28T07:42:07;100800.19;;;16.30;61.37
17649;BME280;8943;51.110;-4.158;2023-04-28T07:45:00;100809.09;;;16.31;61.08
17649;BME280;8943;51.110;-4.158;2023-04-28T07:47:34;100807.97;;;16.23;61.11
17649;BME280;8943;51.110;-4.158;2023-04-28T07:50:30;100811.50;;;16.24;61.00
17649;BME280;8943;51.110;-4.158;2023-04-28T07:53:00;100820.28;;;16.26;61.28
17649;BME280;8943;51.110;-4.158;2023-04-28T07:55:33;100820.53;;;16.33;60.98
17649;BME280;8943;51.110;-4.158;2023-04-28T07:58:01;100835.25;;;16.29;61.06
17649;BME280;8943;51.110;-4.158;2023-04-28T08:00:32;100826.09;;;16.21;61.40
17649;BME280;8943;51.110;-4.158;2023-04-28T08:03:14;100838.25;;;16.26;61.04
17649;BME280;8943;51.110;-4.158;2023-04-28T08:06:01;100833.84;;;16.25;60.64
17649;BME280;8943;51.110;-4.158;2023-04-28T08:08:30;100836.28;;;16.18;61.07
17649;BME280;8943;51.110;-4.158;2023-04-28T08:11:05;100844.91;;;16.21;61.23
17649;BME280;8943;51.110;-4.158;2023-04-28T08:13:38;100841.50;;;16.19;61.13
17649;BME280;8943;51.110;-4.158;2023-04-28T08:16:14;100844.91;;;16.21;61.05
17649;BME280;8943;51.110;-4.158;2023-04-28T08:18:57;100845.63;;;16.23;61.13
17649;BME280;8943;51.110;-4.158;2023-04-28T08:21:26;100853.41;;;16.27;61.37
17649;BME280;8943;51.110;-4.158;2023-04-28T08:24:00;100857.19;;;16.34;61.15
17649;BME280;8943;51.110;-4.158;2023-04-28T08:26:31;100855.50;;;16.33;60.97
17649;BME280;8943;51.110;-4.158;2023-04-28T08:29:00;100865.25;;;16.34;61.07
17649;BME280;8943;51.110;-4.158;2023-04-28T08:34:19;100864.81;;;16.38;60.97
17649;BME280;8943;51.110;-4.158;2023-04-28T08:36:52;100883.50;;;16.40;60.92
17649;BME280;8943;51.110;-4.158;2023-04-28T08:39:21;100876.56;;;16.37;60.86
17649;BME280;8943;51.110;-4.158;2023-04-28T08:41:52;100885.19;;;16.41;61.00
17649;BME280;8943;51.110;-4.158;2023-04-28T08:44:20;100882.75;;;16.47;60.79
17649;BME280;8943;51.110;-4.158;2023-04-28T08:46:53;100891.25;;;16.43;60.67
17649;BME280;8943;51.110;-4.158;2023-04-28T08:49:31;100896.97;;;16.40;61.03
17649;BME280;8943;51.110;-4.158;2023-04-28T08:52:08;100898.78;;;16.39;60.44
17649;BME280;8943;51.110;-4.158;2023-04-28T08:54:38;100893.69;;;16.36;60.32
17649;BME280;8943;51.110;-4.158;2023-04-28T08:57:08;100903.19;;;16.31;60.20
17649;BME280;8943;51.110;-4.158;2023-04-28T08:59:38;100906.75;;;16.21;60.80
17649;BME280;8943;51.110;-4.158;2023-04-28T09:02:09;100908.59;;;16.31;60.71
17649;BME280;8943;51.110;-4.158;2023-04-28T09:04:40;100913.53;;;16.35;60.79
17649;BME280;8943;51.110;-4.158;2023-04-28T09:07:11;100917.75;;;16.38;61.03
17649;BME280;8943;51.110;-4.158;2023-04-28T09:09:41;100926.94;;;16.45;60.79
17649;BME280;8943;51.110;-4.158;2023-04-28T09:12:12;100931.00;;;16.49;60.90
17649;BME280;8943;51.110;-4.158;2023-04-28T09:14:57;100925.63;;;16.49;60.53
17649;BME280;8943;51.110;-4.158;2023-04-28T09:17:48;100940.06;;;16.58;60.64
17649;BME280;8943;51.110;-4.158;2023-04-28T09:20:20;100933.84;;;16.57;60.51
17649;BME280;8943;51.110;-4.158;2023-04-28T09:22:50;100936.25;;;16.60;60.53
17649;BME280;8943;51.110;-4.158;2023-04-28T09:25:19;100942.88;;;16.66;60.50
17649;BME280;8943;51.110;-4.158;2023-04-28T09:27:48;100942.31;;;16.62;60.10
17649;BME280;8943;51.110;-4.158;2023-04-28T09:30:19;100941.88;;;16.67;60.15
17649;BME280;8943;51.110;-4.158;2023-04-28T09:33:06;100953.91;;;16.72;60.20
17649;BME280;8943;51.110;-4.158;2023-04-28T09:35:40;100960.44;;;16.80;59.78
17649;BME280;8943;51.110;-4.158;2023-04-28T09:38:09;100949.25;;;16.75;59.76
17649;BME280;8943;51.110;-4.158;2023-04-28T09:40:56;100960.88;;;16.75;59.89
17649;BME280;8943;51.110;-4.158;2023-04-28T09:43:32;100966.34;;;16.83;59.94
17649;BME280;8943;51.110;-4.158;2023-04-28T09:46:03;100969.59;;;16.87;59.78
17649;BME280;8943;51.110;-4.158;2023-04-28T09:48:37;100980.19;;;16.88;59.33
17649;BME280;8943;51.110;-4.158;2023-04-28T09:51:07;100960.66;;;16.86;59.61
17649;BME280;8943;51.110;-4.158;2023-04-28T09:53:39;100966.88;;;16.96;59.33
17649;BME280;8943;51.110;-4.158;2023-04-28T09:56:07;100971.69;;;16.93;58.60
17649;BME280;8943;51.110;-4.158;2023-04-28T09:58:39;100979.06;;;16.91;58.83
17649;BME280;8943;51.110;-4.158;2023-04-28T10:01:12;100976.53;;;16.89;58.71
17649;BME280;8943;51.110;-4.158;2023-04-28T10:03:45;100976.94;;;16.94;58.96
17649;BME280;8943;51.110;-4.158;2023-04-28T10:06:29;100986.94;;;17.02;58.92
17649;BME280;8943;51.110;-4.158;2023-04-28T10:09:01;100980.44;;;17.05;58.82
17649;BME280;8943;51.110;-4.158;2023-04-28T10:11:34;100986.94;;;17.02;58.51
17649;BME280;8943;51.110;-4.158;2023-04-28T10:14:05;100980.28;;;17.06;58.79
17649;BME280;8943;51.110;-4.158;2023-04-28T10:16:33;100978.72;;;17.13;58.85
17649;BME280;8943;51.110;-4.158;2023-04-28T10:19:03;100993.09;;;17.22;58.95
17649;BME280;8943;51.110;-4.158;2023-04-28T10:21:39;100997.91;;;17.28;58.57
17649;BME280;8943;51.110;-4.158;2023-04-28T10:24:17;100999.88;;;17.26;58.35
17649;BME280;8943;51.110;-4.158;2023-04-28T10:27:01;101007.22;;;17.34;58.40
17649;BME280;8943;51.110;-4.158;2023-04-28T10:29:33;101005.22;;;17.36;58.20
17649;BME280;8943;51.110;-4.158;2023-04-28T10:32:18;100995.75;;;17.32;58.35
17649;BME280;8943;51.110;-4.158;2023-04-28T10:34:53;101008.47;;;17.39;58.28
17649;BME280;8943;51.110;-4.158;2023-04-28T10:38:10;101017.63;;;17.46;58.43
17649;BME280;8943;51.110;-4.158;2023-04-28T10:40:40;101021.00;;;17.58;59.07
17649;BME280;8943;51.110;-4.158;2023-04-28T10:43:10;101016.81;;;17.73;58.64
17649;BME280;8943;51.110;-4.158;2023-04-28T10:46:02;101023.16;;;17.82;57.53
17649;BME280;8943;51.110;-4.158;2023-04-28T10:48:55;101037.66;;;17.71;57.13
17649;BME280;8943;51.110;-4.158;2023-04-28T10:51:31;101033.97;;;17.72;57.02
17649;BME280;8943;51.110;-4.158;2023-04-28T10:54:14;101030.72;;;17.69;57.10
17649;BME280;8943;51.110;-4.158;2023-04-28T10:57:18;101028.00;;;17.69;57.04
17649;BME280;8943;51.110;-4.158;2023-04-28T10:59:47;101035.94;;;17.70;57.32
17649;BME280;8943;51.110;-4.158;2023-04-28T11:02:38;101027.13;;;17.78;57.25
17649;BME280;8943;51.110;-4.158;2023-04-28T11:05:15;101033.00;;;17.91;57.27
17649;BME280;8943;51.110;-4.158;2023-04-28T11:13:54;101039.94;;;18.12;57.24
17649;BME280;8943;51.110;-4.158;2023-04-28T11:16:23;101051.34;;;18.23;56.91
17649;BME280;8943;51.110;-4.158;2023-04-28T11:19:01;101043.47;;;18.48;56.75
17649;BME280;8943;51.110;-4.158;2023-04-28T11:21:33;101050.00;;;18.63;56.45
17649;BME280;8943;51.110;-4.158;2023-04-28T11:24:08;101054.19;;;18.75;55.72
17649;BME280;8943;51.110;-4.158;2023-04-28T11:26:40;101047.34;;;18.89;56.33
17649;BME280;8943;51.110;-4.158;2023-04-28T11:29:12;101054.41;;;19.08;56.20
17649;BME280;8943;51.110;-4.158;2023-04-28T11:31:48;101055.31;;;19.25;55.61
17649;BME280;8943;51.110;-4.158;2023-04-28T11:34:19;101062.25;;;19.27;54.50
17649;BME280;8943;51.110;-4.158;2023-04-28T11:36:47;101067.69;;;19.36;54.63
17649;BME280;8943;51.110;-4.158;2023-04-28T11:39:26;101060.78;;;19.33;54.06
17649;BME280;8943;51.110;-4.158;2023-04-28T11:42:09;101065.00;;;19.36;54.17
17649;BME280;8943;51.110;-4.158;2023-04-28T11:44:38;101065.69;;;19.38;53.57
17649;BME280;8943;51.110;-4.158;2023-04-28T11:48:01;101071.34;;;19.18;52.37
17649;BME280;8943;51.110;-4.158;2023-04-28T11:50:08;101080.28;;;18.93;52.27
17649;BME280;8943;51.110;-4.158;2023-04-28T11:52:48;101086.69;;;18.92;52.94
17649;BME280;8943;51.110;-4.158;2023-04-28T11:55:31;101074.38;;;18.89;53.38
17649;BME280;8943;51.110;-4.158;2023-04-28T11:58:31;101077.19;;;18.88;53.22
17649;BME280;8943;51.110;-4.158;2023-04-28T12:01:22;101096.06;;;18.80;52.76
17649;BME280;8943;51.110;-4.158;2023-04-28T12:03:52;101089.97;;;18.60;52.82
17649;BME280;8943;51.110;-4.158;2023-04-28T12:06:22;101087.09;;;18.43;53.10
17649;BME280;8943;51.110;-4.158;2023-04-28T12:08:57;101096.56;;;18.30;53.69
17649;BME280;8943;51.110;-4.158;2023-04-28T12:11:35;101093.94;;;18.20;54.04
17649;BME280;8943;51.110;-4.158;2023-04-28T12:14:14;101102.22;;;18.18;54.19
17649;BME280;8943;51.110;-4.158;2023-04-28T12:16:50;101103.50;;;18.14;53.96
17649;BME280;8943;51.110;-4.158;2023-04-28T12:19:25;101092.94;;;18.03;54.24
17649;BME280;8943;51.110;-4.158;2023-04-28T12:22:02;101107.03;;;17.97;54.42
17649;BME280;8943;51.110;-4.158;2023-04-28T12:25:05;101108.94;;;17.87;54.57
17649;BME280;8943;51.110;-4.158;2023-04-28T12:27:35;101105.53;;;17.85;54.85
17649;BME280;8943;51.110;-4.158;2023-04-28T12:30:28;101100.09;;;17.94;54.66
17649;BME280;8943;51.110;-4.158;2023-04-28T12:32:59;101112.91;;;18.10;54.93
17649;BME280;8943;51.110;-4.158;2023-04-28T12:35:30;101104.28;;;18.24;53.98
17649;BME280;8943;51.110;-4.158;2023-04-28T12:37:59;101097.97;;;18.34;54.32
17649;BME280;8943;51.110;-4.158;2023-04-28T12:40:31;101105.16;;;18.61;54.55
17649;BME280;8943;51.110;-4.158;2023-04-28T12:43:00;101103.78;;;18.74;53.61
17649;BME280;8943;51.110;-4.158;2023-04-28T12:45:30;101102.31;;;18.80;53.10
17649;BME280;8943;51.110;-4.158;2023-04-28T12:48:01;101112.94;;;19.08;53.40
17649;BME280;8943;51.110;-4.158;2023-04-28T12:50:30;101102.78;;;19.27;52.27
17649;BME280;8943;51.110;-4.158;2023-04-28T12:52:59;101105.47;;;19.27;51.72
17649;BME280;8943;51.110;-4.158;2023-04-28T12:55:28;101118.03;;;19.37;51.75
17649;BME280;8943;51.110;-4.158;2023-04-28T12:58:05;101126.50;;;19.42;51.66
17649;BME280;8943;51.110;-4.158;2023-04-28T13:00:36;101131.59;;;19.45;51.29
17649;BME280;8943;51.110;-4.158;2023-04-28T13:03:05;101130.22;;;19.41;51.20
17649;BME280;8943;51.110;-4.158;2023-04-28T13:05:35;101130.22;;;19.41;51.76
17649;BME280;8943;51.110;-4.158;2023-04-28T13:08:05;101131.28;;;19.48;51.46
17649;BME280;8943;51.110;-4.158;2023-04-28T13:10:35;101144.81;;;19.56;51.60
17649;BME280;8943;51.110;-4.158;2023-04-28T13:13:05;101141.28;;;19.55;50.96
17649;BME280;8943;51.110;-4.158;2023-04-28T13:15:39;101149.72;;;19.52;50.76
17649;BME280;8943;51.110;-4.158;2023-04-28T13:18:08;101158.94;;;19.42;50.75
17649;BME280;8943;51.110;-4.158;2023-04-28T13:20:37;101154.81;;;19.29;50.24
17649;BME280;8943;51.110;-4.158;2023-04-28T13:23:05;101151.94;;;19.05;50.34
17649;BME280;8943;51.110;-4.158;2023-04-28T13:25:34;101159.75;;;18.90;50.64
17649;BME280;8943;51.110;-4.158;2023-04-28T13:28:02;101160.91;;;18.88;51.74
17649;BME280;8943;51.110;-4.158;2023-04-28T13:30:31;101170.13;;;19.03;51.90
17649;BME280;8943;51.110;-4.158;2023-04-28T13:33:04;101168.53;;;19.10;51.51
17649;BME280;8943;51.110;-4.158;2023-04-28T13:35:32;101163.28;;;19.09;51.27
17649;BME280;8943;51.110;-4.158;2023-04-28T13:38:02;101169.66;;;19.08;51.14
17649;BME280;8943;51.110;-4.158;2023-04-28T13:40:33;101164.72;;;19.03;50.94
17649;BME280;8943;51.110;-4.158;2023-04-28T13:43:01;101167.94;;;18.98;51.18
17649;BME280;8943;51.110;-4.158;2023-04-28T13:45:32;101172.06;;;19.11;51.88
17649;BME280;8943;51.110;-4.158;2023-04-28T13:48:06;101163.22;;;19.26;51.39
17649;BME280;8943;51.110;-4.158;2023-04-28T13:50:36;101167.03;;;19.42;50.90
17649;BME280;8943;51.110;-4.158;2023-04-28T13:53:05;101169.44;;;19.45;50.54
17649;BME280;8943;51.110;-4.158;2023-04-28T13:55:34;101166.72;;;19.45;50.40
17649;BME280;8943;51.110;-4.158;2023-04-28T13:58:07;101172.19;;;19.53;50.08
17649;BME280;8943;51.110;-4.158;2023-04-28T14:00:36;101162.13;;;19.63;50.15
17649;BME280;8943;51.110;-4.158;2023-04-28T14:03:12;101168.81;;;19.77;49.52
17649;BME280;8943;51.110;-4.158;2023-04-28T14:05:41;101158.84;;;19.86;50.99
17649;BME280;8943;51.110;-4.158;2023-04-28T14:08:21;101166.88;;;20.03;50.53
17649;BME280;8943;51.110;-4.158;2023-04-28T14:10:53;101163.44;;;20.44;48.57
17649;BME280;8943;51.110;-4.158;2023-04-28T14:13:36;101166.88;;;20.54;47.77
17649;BME280;8943;51.110;-4.158;2023-04-28T14:16:11;101174.84;;;20.55;47.73
17649;BME280;8943;51.110;-4.158;2023-04-28T14:18:41;101157.75;;;20.55;47.33
17649;BME280;8943;51.110;-4.158;2023-04-28T14:21:14;101168.78;;;20.19;49.64
17649;BME280;8943;51.110;-4.158;2023-04-28T14:23:47;101159.09;;;20.59;48.34
17649;BME280;8943;51.110;-4.158;2023-04-28T14:26:15;101166.72;;;20.72;48.11
17649;BME280;8943;51.110;-4.158;2023-04-28T14:28:50;101159.47;;;20.89;47.18
17649;BME280;8943;51.110;-4.158;2023-04-28T14:31:21;101168.59;;;20.88;46.64
17649;BME280;8943;51.110;-4.158;2023-04-28T14:34:00;101158.75;;;20.62;46.08
17649;BME280;8943;51.110;-4.158;2023-04-28T14:36:31;101169.19;;;20.41;47.24
17649;BME280;8943;51.110;-4.158;2023-04-28T14:39:03;101170.84;;;20.33;47.56
17649;BME280;8943;51.110;-4.158;2023-04-28T14:41:34;101167.13;;;20.35;47.58
17649;BME280;8943;51.110;-4.158;2023-04-28T14:44:06;101178.31;;;20.31;47.26
17649;BME280;8943;51.110;-4.158;2023-04-28T14:46:51;101179.13;;;20.24;47.41
17649;BME280;8943;51.110;-4.158;2023-04-28T14:49:22;101174.34;;;20.10;47.08
17649;BME280;8943;51.110;-4.158;2023-04-28T14:51:53;101171.56;;;19.93;47.41
17649;BME280;8943;51.110;-4.158;2023-04-28T14:54:31;101179.50;;;19.87;48.02
17649;BME280;8943;51.110;-4.158;2023-04-28T14:56:59;101181.19;;;19.88;48.23
17649;BME280;8943;51.110;-4.158;2023-04-28T14:59:48;101178.00;;;19.92;48.37
17649;BME280;8943;51.110;-4.158;2023-04-28T15:02:21;101174.59;;;19.90;48.60
17649;BME280;8943;51.110;-4.158;2023-04-28T15:05:03;101185.78;;;19.95;48.56
17649;BME280;8943;51.110;-4.158;2023-04-28T15:07:32;101198.53;;;20.11;48.87
17649;BME280;8943;51.110;-4.158;2023-04-28T15:10:01;101189.03;;;20.07;51.38
17649;BME280;8943;51.110;-4.158;2023-04-28T15:12:33;101194.53;;;20.40;50.95
17649;BME280;8943;51.110;-4.158;2023-04-28T15:15:01;101211.94;;;20.88;49.91
17649;BME280;8943;51.110;-4.158;2023-04-28T15:17:34;101204.16;;;21.42;45.91
17649;BME280;8943;51.110;-4.158;2023-04-28T15:20:06;101210.91;;;21.62;45.03
17649;BME280;8943;51.110;-4.158;2023-04-28T15:22:35;101212.78;;;21.53;44.84
17649;BME280;8943;51.110;-4.158;2023-04-28T15:25:09;101209.25;;;21.28;44.45
17649;BME280;8943;51.110;-4.158;2023-04-28T15:27:37;101206.19;;;21.07;45.29
17649;BME280;8943;51.110;-4.158;2023-04-28T15:30:12;101198.06;;;20.99;45.67
17649;BME280;8943;51.110;-4.158;2023-04-28T15:32:53;101202.09;;;20.78;45.84
17649;BME280;8943;51.110;-4.158;2023-04-28T15:35:26;101211.91;;;20.71;46.59
17649;BME280;8943;51.110;-4.158;2023-04-28T15:37:58;101196.69;;;20.78;46.92
17649;BME280;8943;51.110;-4.158;2023-04-28T15:40:43;101209.25;;;20.96;47.07
17649;BME280;8943;51.110;-4.158;2023-04-28T15:43:13;101213.81;;;21.03;45.96
17649;BME280;8943;51.110;-4.158;2023-04-28T15:45:48;101216.84;;;21.00;46.25
17649;BME280;8943;51.110;-4.158;2023-04-28T15:48:18;101225.81;;;20.93;46.42
17649;BME280;8943;51.110;-4.158;2023-04-28T15:50:52;101234.28;;;20.90;46.60
17649;BME280;8943;51.110;-4.158;2023-04-28T15:53:20;101231.72;;;20.88;46.65
17649;BME280;8943;51.110;-4.158;2023-04-28T15:55:59;101237.31;;;20.87;46.18
17649;BME280;8943;51.110;-4.158;2023-04-28T15:58:57;101231.78;;;20.38;46.18
17649;BME280;8943;51.110;-4.158;2023-04-28T16:01:47;101229.88;;;19.88;46.95
17649;BME280;8943;51.110;-4.158;2023-04-28T16:04:28;101235.69;;;19.49;47.79
17649;BME280;8943;51.110;-4.158;2023-04-28T16:07:07;101238.88;;;19.26;48.74
17649;BME280;8943;51.110;-4.158;2023-04-28T16:09:42;101227.66;;;19.13;49.25
17649;BME280;8943;51.110;-4.158;2023-04-28T16:12:24;101228.50;;;18.96;49.64
17649;BME280;8943;51.110;-4.158;2023-04-28T16:15:05;101222.19;;;18.69;50.16
17649;BME280;8943;51.110;-4.158;2023-04-28T16:17:38;101228.25;;;18.44;51.00
17649;BME280;8943;51.110;-4.158;2023-04-28T16:20:22;101235.72;;;18.32;51.29
17649;BME280;8943;51.110;-4.158;2023-04-28T16:23:22;101235.66;;;18.14;51.66
17649;BME280;8943;51.110;-4.158;2023-04-28T16:26:03;101234.84;;;18.04;52.14
17649;BME280;8943;51.110;-4.158;2023-04-28T16:28:33;101250.78;;;17.97;52.63
17649;BME280;8943;51.110;-4.158;2023-04-28T16:31:05;101253.34;;;17.99;52.82
17649;BME280;8943;51.110;-4.158;2023-04-28T16:33:41;101247.53;;;17.94;53.03
17649;BME280;8943;51.110;-4.158;2023-04-28T16:36:20;101251.13;;;17.85;53.59
17649;BME280;8943;51.110;-4.158;2023-04-28T16:39:01;101250.09;;;17.86;53.45
17649;BME280;8943;51.110;-4.158;2023-04-28T16:41:35;101267.22;;;18.04;54.37
17649;BME280;8943;51.110;-4.158;2023-04-28T16:44:50;101255.72;;;18.12;53.79
